• Join FlightAware (Why Join?)
  • Login
  • US Flag 
Rudolph Flight #1: Arrived! 
10:18PM EST


 

Airport Tracker/Info


-or-


 

Live Flight TrackerFlight Track Log ✈ AAL963 ✈ 23-Jan-2014 ✈ KDFW - SBGR / GRU

Flight Track Log - Related Links

Times and Time Zones

All times are in EST time to prevent confusion due to time zone crossing. See the AAL963 flight status page for this flight to view local times or setup timezone preferences in your user account.

Time Position Orientation Groundspeed Altitude Reporting Facility
EST Latitude Longitude Course Direction KTS MPH feet Rate Location/Type
09:59PM 32.9244 -97.0290 North 173 199 1,400  Level FlightAware ADS-B
10:00PM 32.9458 -97.0242 11° North 203 234 1,800 1,200 Climbing FlightAware ADS-B (KAFW)
10:00PM 32.9670 -97.0188 12° North 222 255 2,400 1,920 Climbing FlightAware ADS-B (KAFW)
10:01PM 32.9840 -97.0154 10° North 231 266 3,000 1,800 Climbing FlightAware ADS-B (KAFW)
10:01PM 33.0061 -97.0119 North 243 280 3,500 2,460 Climbing FlightAware ADS-B (KAFW)
10:01PM 33.0255 -97.0005 26° Northeast 234 269 4,700 2,760 Climbing FlightAware ADS-B (KAFW)
10:02PM 33.0383 -96.9806 52° Northeast 243 280 5,400 2,100 Climbing FlightAware ADS-B (KAFW)
10:02PM 33.0394 -96.9502 88° East 269 310 6,100 2,040 Climbing FlightAware ADS-B (KAFW)
10:02PM 33.0286 -96.9214 114° Southeast 285 328 6,800 2,160 Climbing FlightAware ADS-B (KAFW)
10:03PM 33.0148 -96.8935 121° Southeast 292 336 7,600 2,040 Climbing FlightAware ADS-B (KAFW)
10:03PM 33.0004 -96.8626 119° Southeast 304 350 8,200 1,740 Climbing FlightAware ADS-B (KAFW)
10:03PM 32.9886 -96.8358 118° Southeast 315 362 8,800 1,740 Climbing FlightAware ADS-B (KAFW)
10:04PM 32.9737 -96.8011 117° Southeast 321 369 9,400 1,440 Climbing FlightAware ADS-B (KAFW)
10:04PM 32.9603 -96.7725 119° Southeast 335 386 9,800 1,080 Climbing FlightAware ADS-B (KAFW)
10:05PM 32.9248 -96.6966 119° Southeast 382 440 10,500 1,260 Climbing FlightAware ADS-B (KAFW)
10:05PM 32.8923 -96.6232 118° Southeast 410 472 11,500 1,800 Climbing FlightAware ADS-B (KAFW)
10:06PM 32.8535 -96.5392 119° Southeast 433 498 12,900 2,220 Climbing FlightAware ADS-B (KAFW)
10:07PM 32.8282 -96.4825 118° Southeast 445 512 14,600 2,460 Climbing FlightAware ADS-B (KAFW)
10:07PM 32.7807 -96.3775 118° Southeast 454 522 16,100 2,280 Climbing FlightAware ADS-B (KAFW)
10:09PM 32.7335 -96.1676 105° East 482 555 19,200 2,100 Climbing FlightAware ADS-B (KAFW)
10:10PM 32.6984 -95.9340 100° East 509 586 22,000 1,800 Climbing FlightAware ADS-B (KHOU)
10:11PM 32.6850 -95.8498 101° East 522 601 22,700 1,500 Climbing FlightAware ADS-B (KHOU)
10:11PM 32.6714 -95.7648 101° East 529 609 23,500 1,560 Climbing FlightAware ADS-B (KHOU)
10:12PM 32.6609 -95.6793 98° East 537 618 24,300 1,320 Climbing FlightAware ADS-B (KHOU)
10:12PM 32.6610 -95.5880 90° East 547 629 24,900 1,380 Climbing FlightAware ADS-B (KHOU)
10:13PM 32.6657 -95.5209 85° East 550 633 25,700 1,500 Climbing FlightAware ADS-B (KHOU)
10:13PM 32.6765 -95.3627 85° East 562 647 26,800 1,380 Climbing FlightAware ADS-B (KHOU)
10:14PM 32.6829 -95.2682 85° East 568 654 27,500 1,380 Climbing FlightAware ADS-B (KHOU)
10:14PM 32.6854 -95.2311 85° East 571 657 27,800 1,440 Climbing FlightAware ADS-B (KDTN)
10:14PM 32.6888 -95.1790 86° East 574 661 28,200 1,200 Climbing FlightAware ADS-B (KHOU)
10:15PM 32.6934 -95.1079 86° East 577 664 28,600 960 Climbing FlightAware ADS-B (KDTN)
10:15PM 32.6950 -95.0844 86° East 582 670 28,700 900 Climbing FlightAware ADS-B (KHOU)
10:15PM 32.6921 -94.9779 92° East 595 685 29,200 960 Climbing FlightAware ADS-B (KDTN)
10:16PM 32.6718 -94.8836 104° East 601 692 29,900 1,080 Climbing FlightAware ADS-B (KDTN)
10:16PM 32.6510 -94.8286 114° Southeast 600 690 30,100 1,380 Climbing FlightAware ADS-B (KHOU)
10:17PM 32.6095 -94.7497 122° Southeast 594 684 30,800 720 Climbing FlightAware ADS-B (KHOU)
10:17PM 32.5443 -94.6326 123° Southeast 587 676 31,000 120 Climbing FlightAware ADS-B (KDTN)
10:18PM 32.4940 -94.5431 124° Southeast 586 674 31,000  Level FlightAware ADS-B (KDTN)
10:18PM 32.4432 -94.4532 124° Southeast 586 674 31,000  Level FlightAware ADS-B (KHOU)
10:19PM 32.4251 -94.4211 124° Southeast 584 672 31,000  Level FlightAware ADS-B (KDTN)
10:19PM 32.3977 -94.3726 124° Southeast 583 671 31,000  Level FlightAware ADS-B (KHOU)
10:19PM 32.3804 -94.3420 124° Southeast 582 670 31,000  Level FlightAware ADS-B (KDTN)
10:19PM 32.3532 -94.2939 124° Southeast 583 671 31,000  Level FlightAware ADS-B (KHOU)
10:20PM 32.3081 -94.2142 124° Southeast 582 670 31,000  Level FlightAware ADS-B (KHOU)
10:20PM 32.3051 -94.2089 124° Southeast 581 669 31,000  Level FlightAware ADS-B (KDTN)
10:20PM 32.2634 -94.1354 124° Southeast 583 671 31,000  Level FlightAware ADS-B (KHOU)
10:21PM 32.2484 -94.1091 124° Southeast 582 670 31,000  Level FlightAware ADS-B (KDTN)
10:21PM 32.2188 -94.0569 124° Southeast 583 671 31,000  Level FlightAware ADS-B (KHOU)
10:21PM 32.1933 -94.0121 124° Southeast 582 670 31,000  Level FlightAware ADS-B (KDTN)
10:21PM 32.1737 -93.9776 124° Southeast 582 670 31,000  Level FlightAware ADS-B (KHOU)
10:22PM 32.1292 -93.8997 124° Southeast 583 671 31,000  Level FlightAware ADS-B (KHOU)
10:22PM 32.1028 -93.8535 124° Southeast 581 669 31,000  Level FlightAware ADS-B (KDTN)
10:22PM 32.0853 -93.8228 124° Southeast 582 670 31,000  Level FlightAware ADS-B (KHOU)
10:23PM 32.0422 -93.7477 124° Southeast 581 669 31,000  Level FlightAware ADS-B (KHOU)
10:23PM 32.0451 -93.7527 304° West 580 667 31,000  Level FlightAware ADS-B (KDTN)
10:24PM 31.9857 -93.6495 124° Southeast 580 667 31,000  Level FlightAware ADS-B (KDTN)
10:24PM 31.9680 -93.6187 124° Southeast 581 669 31,000  Level FlightAware ADS-B (KHOU)
10:24PM 31.9258 -93.5456 124° Southeast 581 669 31,000  Level FlightAware ADS-B (KDTN)
10:25PM 31.8564 -93.4256 124° Southeast 581 669 31,000  Level FlightAware ADS-B (KDTN)
10:26PM 31.7558 -93.2521 124° Southeast 578 665 31,000  Level FlightAware ADS-B (KHOU)
10:27PM 31.7108 -93.1746 124° Southeast 578 665 31,000  Level FlightAware ADS-B (KHOU)
10:27PM 31.6733 -93.1101 124° Southeast 576 663 31,000  Level FlightAware ADS-B (KHOU)
10:28PM 31.5719 -92.9365 124° Southeast 576 663 31,000  Level FlightAware ADS-B (KHOU)
10:29PM 31.5275 -92.8583 124° Southeast 575 662 31,000  Level FlightAware ADS-B (KHOU)
10:29PM 31.4875 -92.7869 123° Southeast 574 661 31,000  Level FlightAware ADS-B (KHOU)
10:30PM 31.4403 -92.7034 123° Southeast 573 659 31,000  Level FlightAware ADS-B (KHOU)
10:30PM 31.3970 -92.6270 124° Southeast 574 661 31,000  Level FlightAware ADS-B (KHOU)
10:31PM 31.3097 -92.4743 124° Southeast 574 661 31,000  Level FlightAware ADS-B (KHOU)
10:32PM 31.2666 -92.3990 124° Southeast 573 659 31,000  Level FlightAware ADS-B (KHOU)
10:32PM 31.2455 -92.3623 124° Southeast 574 661 31,000  Level FlightAware ADS-B (KHOU)
10:33PM 31.1758 -92.2411 124° Southeast 573 659 31,000  Level FlightAware ADS-B (KHOU)
10:33PM 31.1316 -92.1644 124° Southeast 572 658 31,000  Level FlightAware ADS-B (KHOU)
10:34PM 31.0968 -92.1044 124° Southeast 572 658 31,000  Level FlightAware ADS-B (KHOU)
10:34PM 31.0717 -92.0607 124° Southeast 572 658 31,000  Level FlightAware ADS-B (KHOU)
10:34PM 31.0308 -91.9906 124° Southeast 571 657 31,000  Level Fort Worth Center
10:35PM 30.9781 -91.9006 124° Southeast 571 657 31,000  Level Houston Center
10:36PM 30.8894 -91.7494 124° Southeast 567 652 31,000  Level Houston Center
10:37PM 30.8017 -91.5972 124° Southeast 567 652 31,000  Level Houston Center
10:38PM 30.7128 -91.4447 124° Southeast 571 657 31,000  Level Houston Center
10:39PM 30.6253 -91.2994 125° Southeast 571 657 31,000 -60 Level Houston Center
10:40PM 30.5367 -91.1486 124° Southeast 568 654 30,900  Descending Houston Center
10:41PM 30.4544 -90.9931 121° Southeast 568 654 31,000  Climbing Houston Center
10:42PM 30.3817 -90.7850 112° Southeast 578 665 30,900 -60 Descending Houston Center
10:43PM 30.3158 -90.6156 114° Southeast 580 667 30,900  Level Houston Center
10:44PM 30.2492 -90.4478 115° Southeast 578 665 31,000  Climbing Houston Center
10:45PM 30.1811 -90.2811 115° Southeast 578 665 31,000 -60 Level Houston Center
10:46PM 30.1142 -90.1161 115° Southeast 575 662 30,900 -60 Descending Houston Center
10:47PM 30.0467 -89.9531 116° Southeast 572 658 30,900  Level Houston Center
10:48PM 29.9814 -89.7881 115° Southeast 572 658 30,900  Level Houston Center
10:49PM 29.9175 -89.6233 114° Southeast 571 657 31,000  Climbing Houston Center
10:50PM 29.8525 -89.4569 114° Southeast 574 661 30,900 -60 Descending Houston Center
10:51PM 29.7883 -89.2917 114° Southeast 571 657 30,900  Level Houston Center
10:52PM 29.7222 -89.1275 115° Southeast 569 655 30,900  Level Houston Center
10:53PM 29.6436 -88.9306 115° Southeast 567 652 30,900  Level Houston Center
10:54PM 29.5775 -88.7678 115° Southeast 567 652 30,900  Level Houston Center
10:55PM 29.5117 -88.6056 115° Southeast 564 649 31,000 480 Climbing Houston Center
10:56PM 29.4464 -88.4422 115° Southeast 564 649 31,900 960 Climbing Houston Center
10:57PM 29.3831 -88.2864 115° Southeast 565 650 33,000 480 Climbing Houston Center
10:58PM 29.3136 -88.1153 115° Southeast 567 652 32,900  Descending Houston Center
10:59PM 29.2475 -87.9569 116° Southeast 571 657 33,000  Climbing Houston Center
11:00PM 29.1808 -87.7956 115° Southeast 566 651 32,900  Descending Houston Center
11:01PM 29.1136 -87.6328 115° Southeast 567 652 33,000  Climbing Houston Center
11:02PM 29.0472 -87.4711 115° Southeast 566 651 32,900 -60 Descending Houston Center
11:03PM 28.9792 -87.3097 116° Southeast 566 651 32,900  Level Houston Center
11:04PM 28.9117 -87.1500 116° Southeast 562 647 33,000  Climbing Houston Center
11:05PM 28.8439 -86.9928 116° Southeast 565 650 33,000 -60 Level Jacksonville Center
11:06PM 28.7781 -86.8339 115° Southeast 565 650 32,900  Descending Jacksonville Center
11:07PM 28.7119 -86.6728 115° Southeast 565 650 33,000  Climbing Jacksonville Center
11:08PM 28.6436 -86.5117 116° Southeast 565 650 33,000  Level Jacksonville Center
11:09PM 28.5750 -86.3531 116° Southeast 562 647 33,000 -60 Level Jacksonville Center
11:10PM 28.5061 -86.1950 116° Southeast 562 647 32,900  Descending Jacksonville Center
11:11PM 28.4389 -86.0417 116° Southeast 557 641 33,000  Climbing Jacksonville Center
11:12PM 28.3678 -85.8814 117° Southeast 563 648 33,000 -60 Level Jacksonville Center
11:13PM 28.2983 -85.7192 116° Southeast 563 648 32,900 -60 Descending Jacksonville Center
11:14PM 28.2306 -85.5664 117° Southeast 557 641 32,900  Level Jacksonville Center
11:16PM 28.1278 -85.3256 116° Southeast 570 656 32,900  Level Miami Center
11:17PM 28.0542 -85.1628 117° Southeast 570 656 32,900  Level Miami Center
11:18PM 27.9858 -85.0097 117° Southeast 570 656 33,000 -600 Climbing Miami Center
11:19PM 27.9175 -84.8547 116° Southeast 563 648 31,800 -1,020 Descending Miami Center
11:20PM 27.8553 -84.6956 114° Southeast 557 641 31,000 -480 Descending Miami Center
11:21PM 27.7908 -84.5389 115° Southeast 546 628 30,900  Descending Miami Center
11:22PM 27.7261 -84.3797 115° Southeast 546 628 31,000  Climbing Miami Center
11:23PM 27.6656 -84.2236 114° Southeast 546 628 31,000  Level Miami Center
11:29PM 27.2901 -83.2953 114° Southeast 544 626 31,000  Level FlightAware ADS-B (KMCO)
11:32PM 27.0851 -82.7995 115° Southeast 540 621 31,000  Level FlightAware ADS-B (KMCO)
11:33PM 27.0532 -82.7231 115° Southeast 541 623 31,000 -180 Level FlightAware ADS-B (KMCO)
11:33PM 26.9951 -82.5839 115° Southeast 539 620 30,800 -660 Descending FlightAware ADS-B (KMCO)
11:34PM 26.9550 -82.4880 115° Southeast 534 615 30,200 -900 Descending FlightAware ADS-B (KMCO)
11:35PM 26.9076 -82.3753 115° Southeast 530 610 29,600 -840 Descending FlightAware ADS-B (KMCO)
11:35PM 26.8654 -82.2753 115° Southeast 525 604 29,100 -480 Descending FlightAware ADS-B (KMCO)
11:36PM 26.8220 -82.1724 115° Southeast 521 600 29,000 -120 Descending FlightAware ADS-B (KMCO)
11:37PM 26.7806 -82.0747 115° Southeast 522 601 29,000  Level FlightAware ADS-B (KMCO)
11:37PM 26.7405 -81.9802 115° Southeast 523 602 29,000  Level FlightAware ADS-B (KMCO)
11:38PM 26.6962 -81.8761 115° Southeast 522 601 29,000  Level FlightAware ADS-B (KMCO)
11:39PM 26.6551 -81.7795 115° Southeast 522 601 29,000  Level FlightAware ADS-B (KMCO)
11:39PM 26.6133 -81.6815 116° Southeast 520 598 29,000  Level FlightAware ADS-B (KMCO)
11:40PM 26.5734 -81.5885 116° Southeast 520 598 29,000  Level FlightAware ADS-B (KMCO)
11:41PM 26.5294 -81.4860 116° Southeast 519 597 29,000  Level FlightAware ADS-B (KMCO)
11:41PM 26.4841 -81.3806 116° Southeast 519 597 29,000  Level FlightAware ADS-B (KMCO)
11:42PM 26.4431 -81.2857 116° Southeast 519 597 29,000  Level FlightAware ADS-B (KMCO)
11:43PM 26.4013 -81.1888 116° Southeast 520 598 29,000  Level FlightAware ADS-B (KMCO)
11:43PM 26.3609 -81.0953 116° Southeast 518 596 29,000  Level FlightAware ADS-B (KMCO)
11:44PM 26.3241 -81.0109 116° Southeast 518 596 29,000  Level FlightAware ADS-B (KMCO)
11:45PM 26.2828 -80.9231 116° Southeast 516 594 29,000  Level Miami Center
11:46PM 26.2242 -80.7753 114° Southeast 521 600 29,000 -60 Level Miami Center
11:47PM 26.1611 -80.6344 116° Southeast 516 594 28,900 -60 Descending Miami Center
11:48PM 26.0981 -80.4867 115° Southeast 516 594 28,900  Level Miami Center
11:49PM 26.0325 -80.3436 117° Southeast 516 594 29,000  Climbing Miami Center
11:50PM 25.9631 -80.1867 116° Southeast 516 594 28,900  Descending Miami Center
11:51PM 25.8994 -80.0417 116° Southeast 516 594 29,000  Climbing Miami Center
11:52PM 25.8356 -79.8994 116° Southeast 516 594 29,000  Level Miami Center
11:53PM 25.7697 -79.7569 117° Southeast 516 594 29,000  Level Miami Center
11:54PM 25.6822 -79.6325 128° Southeast 516 594 29,000 -60 Level Miami Center
11:55PM 25.5944 -79.5108 129° Southeast 516 594 28,900  Descending Miami Center
11:56PM 25.5069 -79.3892 129° Southeast 510 587 29,000  Climbing Miami Center
11:57PM 25.4231 -79.2725 129° Southeast 498 573 28,900 -60 Descending Miami Center
11:58PM 25.3331 -79.1533 130° Southeast 498 573 28,900  Level Miami Center
11:59PM 25.2450 -79.0344 129° Southeast 503 579 28,900  Level Miami Center
12:00AM 25.1589 -78.9206 130° Southeast 503 579 29,000  Climbing Miami Center
12:01AM 25.0686 -78.7997 130° Southeast 503 579 29,000  Level Miami Center
12:02AM 24.9761 -78.6858 132° Southeast 503 579 29,000  Level Miami Center
12:03AM 24.8875 -78.5678 130° Southeast 503 579 29,000  Level Miami Center
12:04AM 24.7989 -78.4522 130° Southeast 503 579 29,000  Level Miami Center
12:05AM 24.7061 -78.3342 131° Southeast 503 579 29,000  Level Miami Center
12:06AM 24.6194 -78.2189 130° Southeast 503 579 29,000  Level Miami Center
12:07AM 24.5286 -78.1039 131° Southeast 496 571 29,000  Level Miami Center
12:08AM 24.4417 -77.9889 130° Southeast 501 577 29,000  Level Miami Center
12:09AM 24.3528 -77.8717 130° Southeast 501 577 29,000  Level Miami Center
12:10AM 24.2614 -77.7569 131° Southeast 501 577 29,000  Level Miami Center
12:11AM 24.1722 -77.6425 130° Southeast 501 577 29,000  Level Miami Center
12:12AM 24.0831 -77.5281 130° Southeast 501 577 29,000  Level Miami Center
12:13AM 23.9936 -77.4139 131° Southeast 501 577 29,000  Level Miami Center
12:14AM 23.9042 -77.2975 130° Southeast 501 577 29,000  Level Miami Center
12:15AM 23.8144 -77.1836 131° Southeast 496 571 29,000  Level Miami Center
12:16AM 23.7372 -77.0836 130° Southeast 486 559 29,000  Level Miami Center
12:17AM 23.6475 -76.9700 131° Southeast 486 559 29,000  Level Miami Center
12:18AM 23.5556 -76.8589 132° Southeast 486 559 29,000  Level Miami Center
12:19AM 23.4700 -76.7456 129° Southeast 491 565 29,000  Level Miami Center
12:20AM 23.3800 -76.6325 131° Southeast 491 565 29,000  Level Miami Center
12:21AM 23.2897 -76.5197 131° Southeast 491 565 29,000  Level Miami Center
12:22AM 23.1975 -76.4069 132° Southeast 491 565 29,000  Level Miami Center
12:23AM 23.1094 -76.2942 130° Southeast 491 565 29,000  Level Miami Center
12:24AM 23.0192 -76.1839 132° Southeast 491 565 29,000  Level Miami Center
12:25AM 22.9286 -76.0717 131° Southeast 491 565 29,000  Level Miami Center
12:26AM 22.8383 -75.9594 131° Southeast 491 565 29,000  Level Miami Center
12:27AM 22.7497 -75.8497 131° Southeast 491 565 29,000  Level Miami Center
12:28AM 22.6592 -75.7403 132° Southeast 491 565 29,000  Level Miami Center
12:29AM 22.5706 -75.6308 131° Southeast 491 565 29,000  Level Miami Center
12:30AM 22.4628 -75.4969 131° Southeast 491 565 29,000  Level Miami Center
12:31AM 22.3553 -75.3678 132° Southeast 491 565 29,000  Level Miami Center
12:32AM 22.2642 -75.2567 132° Southeast 491 565 29,000  Level Miami Center
12:33AM 22.1753 -75.1433 130° Southeast 491 565 29,000  Level Miami Center
12:34AM 22.0819 -75.0369 133° Southeast 491 565 29,000  Level Miami Center
12:35AM 21.9806 -74.9397 138° Southeast 486 559 29,000  Level Miami Center
12:36AM 21.8792 -74.8431 138° Southeast 486 559 29,000  Level Miami Center
12:37AM 21.7775 -74.7506 140° Southeast 486 559 29,000  Level Miami Center
12:38AM 21.6800 -74.6472 135° Southeast 486 559 29,000 -60 Level Miami Center
12:39AM 21.5783 -74.5506 139° Southeast 486 559 28,900  Descending Miami Center
12:40AM 21.4767 -74.4564 139° Southeast 486 559 29,000  Climbing Miami Center
12:41AM 21.3772 -74.3622 139° Southeast 491 565 29,000  Level Miami Center
12:42AM 21.2669 -74.2597 139° Southeast 491 565 29,000 -60 Level Miami Center
12:43AM 21.1650 -74.1617 138° Southeast 491 565 28,900 -60 Descending Miami Center
12:44AM 21.0611 -74.0681 140° Southeast 491 565 28,900  Level Miami Center
12:45AM 20.9611 -73.9722 138° Southeast 491 565 28,900  Level Miami Center
12:46AM 20.8592 -73.8767 139° Southeast 486 559 28,900  Level Miami Center
12:47AM 20.7550 -73.7814 139° Southeast 491 565 28,900  Level Miami Center
12:48AM 20.6550 -73.6883 139° Southeast 491 565 28,900  Level Miami Center
12:49AM 20.5553 -73.5975 140° Southeast 486 559 28,900  Level Miami Center
12:50AM 20.4508 -73.5006 139° Southeast 486 559 28,900  Level Miami Center
12:51AM 20.3508 -73.4078 139° Southeast 491 565 29,000  Climbing Miami Center
12:52AM 20.2444 -73.3131 140° Southeast 491 565 29,000  Level Miami Center
12:54AM 20.0895 -73.1871 148° Southeast  Level FlightAware Approximate
01:01AM 19.2642 -72.6339 148° Southeast  Level FlightAware Approximate
01:02AM 19.1461 -72.5554 148° Southeast  Level FlightAware Approximate
01:03AM 19.0281 -72.4769 148° Southeast  Level FlightAware Approximate
01:04AM 18.9100 -72.3986 148° Southeast  Level FlightAware Approximate
01:05AM 18.7918 -72.3204 148° Southeast  Level FlightAware Approximate
01:06AM 18.6737 -72.2422 148° Southeast  Level FlightAware Approximate
01:07AM 18.5555 -72.1642 148° Southeast  Level FlightAware Approximate
01:08AM 18.4372 -72.0863 148° Southeast  Level FlightAware Approximate
01:09AM 18.3190 -72.0085 148° Southeast  Level FlightAware Approximate
01:10AM 18.2006 -71.9308 148° Southeast  Level FlightAware Approximate
01:11AM 18.0823 -71.8533 148° Southeast  Level FlightAware Approximate
01:12AM 17.9640 -71.7758 148° Southeast  Level FlightAware Approximate
01:13AM 17.8454 -71.6988 148° Southeast  Level FlightAware Approximate
01:14AM 17.7267 -71.6219 148° Southeast  Level FlightAware Approximate
01:15AM 17.6080 -71.5452 148° Southeast  Level FlightAware Approximate
01:16AM 17.4893 -71.4685 148° Southeast  Level FlightAware Approximate
01:17AM 17.3705 -71.3920 148° Southeast  Level FlightAware Approximate
01:18AM 17.2518 -71.3155 148° Southeast  Level FlightAware Approximate
01:19AM 17.1329 -71.2391 148° Southeast  Level FlightAware Approximate
01:20AM 17.0141 -71.1629 148° Southeast  Level FlightAware Approximate
01:21AM 16.8952 -71.0867 148° Southeast  Level FlightAware Approximate
01:22AM 16.7764 -71.0106 149° Southeast  Level FlightAware Approximate
01:23AM 16.6574 -70.9347 149° Southeast  Level FlightAware Approximate
01:24AM 16.5385 -70.8588 149° Southeast  Level FlightAware Approximate
01:25AM 16.4195 -70.7830 149° Southeast  Level FlightAware Approximate
01:26AM 16.3005 -70.7073 149° Southeast  Level FlightAware Approximate
01:27AM 16.1815 -70.6317 149° Southeast  Level FlightAware Approximate
01:28AM 16.0624 -70.5562 149° Southeast  Level FlightAware Approximate
01:29AM 15.9433 -70.4808 149° Southeast  Level FlightAware Approximate
01:30AM 15.8243 -70.4054 149° Southeast  Level FlightAware Approximate
01:31AM 15.7052 -70.3301 149° Southeast  Level FlightAware Approximate
01:32AM 15.5940 -70.2599 149° Southeast  Level FlightAware Approximate
01:33AM 15.4828 -70.1898 149° Southeast  Level FlightAware Approximate
01:34AM 15.3716 -70.1198 149° Southeast  Level FlightAware Approximate
01:35AM 15.2604 -70.0499 149° Southeast  Level FlightAware Approximate
01:36AM 15.1492 -69.9800 149° Southeast  Level FlightAware Approximate
01:37AM 15.0379 -69.9102 149° Southeast  Level FlightAware Approximate
01:38AM 14.9267 -69.8405 149° Southeast  Level FlightAware Approximate
01:39AM 14.8154 -69.7709 149° Southeast  Level FlightAware Approximate
01:40AM 14.7041 -69.7013 149° Southeast  Level FlightAware Approximate
01:41AM 14.5927 -69.6318 149° Southeast  Level FlightAware Approximate
01:42AM 14.4813 -69.5624 149° Southeast  Level FlightAware Approximate
01:43AM 14.3700 -69.4930 149° Southeast  Level FlightAware Approximate
01:44AM 14.2586 -69.4237 149° Southeast  Level FlightAware Approximate
01:45AM 14.1472 -69.3545 149° Southeast  Level FlightAware Approximate
01:46AM 14.0357 -69.2853 149° Southeast  Level FlightAware Approximate
01:47AM 13.9242 -69.2163 149° Southeast  Level FlightAware Approximate
01:48AM 13.8128 -69.1472 149° Southeast  Level FlightAware Approximate
01:49AM 13.7013 -69.0783 149° Southeast  Level FlightAware Approximate
01:50AM 13.5898 -69.0094 149° Southeast  Level FlightAware Approximate
01:51AM 13.4782 -68.9406 149° Southeast  Level FlightAware Approximate
01:52AM 13.3666 -68.8718 149° Southeast  Level FlightAware Approximate
01:53AM 13.2513 -68.8008 149° Southeast  Level FlightAware Approximate
01:54AM 13.1360 -68.7299 149° Southeast  Level FlightAware Approximate
01:55AM 13.0206 -68.6590 149° Southeast  Level FlightAware Approximate
01:56AM 12.9052 -68.5882 149° Southeast  Level FlightAware Approximate
01:57AM 12.7898 -68.5174 149° Southeast  Level FlightAware Approximate
01:58AM 12.6744 -68.4467 149° Southeast  Level FlightAware Approximate
02:00AM 12.4262 -68.2950 149° Southeast  Level FlightAware Approximate
02:02AM 12.2125 -68.1647 149° Southeast  Level FlightAware Approximate
02:03AM 12.0970 -68.0943 149° Southeast  Level FlightAware Approximate
02:04AM 11.9815 -68.0240 149° Southeast  Level FlightAware Approximate
02:05AM 11.8659 -67.9538 149° Southeast  Level FlightAware Approximate
02:06AM 11.7504 -67.8836 149° Southeast  Level FlightAware Approximate
02:07AM 11.6348 -67.8133 149° Southeast  Level FlightAware Approximate
02:08AM 11.5193 -67.7432 149° Southeast  Level FlightAware Approximate
02:09AM 11.4037 -67.6731 149° Southeast  Level FlightAware Approximate
02:10AM 11.2882 -67.6031 149° Southeast  Level FlightAware Approximate
02:11AM 11.1726 -67.5331 149° Southeast  Level FlightAware Approximate
02:12AM 11.0569 -67.4631 149° Southeast  Level FlightAware Approximate
02:13AM 10.9413 -67.3932 149° Southeast  Level FlightAware Approximate
02:14AM 10.8257 -67.3234 149° Southeast  Level FlightAware Approximate
02:15AM 10.7100 -67.2537 149° Southeast  Level FlightAware Approximate
02:16AM 10.5943 -67.1840 149° Southeast  Level FlightAware Approximate
02:17AM 10.4786 -67.1143 149° Southeast  Level FlightAware Approximate
02:18AM 10.3629 -67.0447 149° Southeast  Level FlightAware Approximate
02:19AM 10.2472 -66.9751 149° Southeast  Level FlightAware Approximate
02:20AM 10.1315 -66.9056 149° Southeast  Level FlightAware Approximate
02:21AM 10.0157 -66.8362 149° Southeast  Level FlightAware Approximate
02:22AM 9.9000 -66.7667 149° Southeast  Level FlightAware Approximate
02:23AM 9.7842 -66.6974 149° Southeast  Level FlightAware Approximate
02:24AM 9.6684 -66.6281 149° Southeast  Level FlightAware Approximate
02:25AM 9.5526 -66.5588 149° Southeast  Level FlightAware Approximate
02:26AM 9.4368 -66.4896 149° Southeast  Level FlightAware Approximate
02:27AM 9.3209 -66.4204 149° Southeast  Level FlightAware Approximate
02:28AM 9.2051 -66.3513 150° Southeast  Level FlightAware Approximate
02:29AM 9.0892 -66.2822 150° Southeast  Level FlightAware Approximate
02:30AM 8.9733 -66.2132 150° Southeast  Level FlightAware Approximate
02:31AM 8.8574 -66.1442 150° Southeast  Level FlightAware Approximate
02:32AM 8.7415 -66.0752 150° Southeast  Level FlightAware Approximate
02:33AM 8.6256 -66.0063 150° Southeast  Level FlightAware Approximate
02:34AM 8.5097 -65.9375 150° Southeast  Level FlightAware Approximate
02:35AM 8.3938 -65.8687 150° Southeast  Level FlightAware Approximate
02:36AM 8.2778 -65.7999 150° Southeast  Level FlightAware Approximate
02:37AM 8.1619 -65.7311 150° Southeast  Level FlightAware Approximate
02:38AM 8.0459 -65.6625 150° Southeast  Level FlightAware Approximate
02:39AM 7.9299 -65.5938 150° Southeast  Level FlightAware Approximate
02:40AM 7.8139 -65.5252 150° Southeast  Level FlightAware Approximate
02:41AM 7.6979 -65.4566 150° Southeast  Level FlightAware Approximate
02:42AM 7.5819 -65.3880 150° Southeast  Level FlightAware Approximate
02:43AM 7.4659 -65.3195 150° Southeast  Level FlightAware Approximate
02:44AM 7.3498 -65.2511 150° Southeast  Level FlightAware Approximate
02:45AM 7.2338 -65.1826 150° Southeast  Level FlightAware Approximate
02:46AM 7.1177 -65.1142 150° Southeast  Level FlightAware Approximate
02:47AM 7.0016 -65.0459 150° Southeast  Level FlightAware Approximate
02:48AM 6.8856 -64.9775 150° Southeast  Level FlightAware Approximate
02:49AM 6.7695 -64.9092 150° Southeast  Level FlightAware Approximate
02:50AM 6.6534 -64.8410 150° Southeast  Level FlightAware Approximate
02:51AM 6.5373 -64.7728 150° Southeast  Level FlightAware Approximate
02:52AM 6.4211 -64.7046 150° Southeast  Level FlightAware Approximate
02:53AM 6.3050 -64.6364 150° Southeast  Level FlightAware Approximate
02:54AM 6.1889 -64.5683 150° Southeast  Level FlightAware Approximate
02:55AM 6.0727 -64.5001 150° Southeast  Level FlightAware Approximate
02:56AM 5.9566 -64.4321 150° Southeast  Level FlightAware Approximate
02:57AM 5.8404 -64.3640 150° Southeast  Level FlightAware Approximate
02:58AM 5.7243 -64.2960 150° Southeast  Level FlightAware Approximate
02:59AM 5.6081 -64.2280 150° Southeast  Level FlightAware Approximate
03:00AM 5.4919 -64.1600 150° Southeast  Level FlightAware Approximate
03:01AM 5.3757 -64.0921 150° Southeast  Level FlightAware Approximate
03:02AM 5.2595 -64.0242 150° Southeast  Level FlightAware Approximate
03:03AM 5.1433 -63.9563 150° Southeast  Level FlightAware Approximate
03:04AM 5.0271 -63.8884 150° Southeast  Level FlightAware Approximate
03:05AM 4.9109 -63.8206 150° Southeast  Level FlightAware Approximate
03:06AM 4.7946 -63.7527 150° Southeast  Level FlightAware Approximate
03:07AM 4.6784 -63.6850 150° Southeast  Level FlightAware Approximate
03:08AM 4.5622 -63.6172 150° Southeast  Level FlightAware Approximate
03:09AM 4.4459 -63.5494 150° Southeast  Level FlightAware Approximate
03:10AM 4.3297 -63.4817 150° Southeast  Level FlightAware Approximate
03:11AM 4.2134 -63.4140 150° Southeast  Level FlightAware Approximate
03:12AM 4.0971 -63.3463 150° Southeast  Level FlightAware Approximate
03:13AM 3.9809 -63.2786 150° Southeast  Level FlightAware Approximate
03:14AM 3.8646 -63.2110 150° Southeast  Level FlightAware Approximate
03:15AM 3.7483 -63.1433 150° Southeast  Level FlightAware Approximate
03:16AM 3.6320 -63.0757 150° Southeast  Level FlightAware Approximate
03:17AM 3.5157 -63.0081 150° Southeast  Level FlightAware Approximate
03:18AM 3.3994 -62.9406 150° Southeast  Level FlightAware Approximate
03:19AM 3.2831 -62.8730 150° Southeast  Level FlightAware Approximate
03:20AM 3.1668 -62.8055 150° Southeast  Level FlightAware Approximate
03:21AM 3.0505 -62.7379 150° Southeast  Level FlightAware Approximate
03:22AM 2.9342 -62.6704 150° Southeast  Level FlightAware Approximate
03:23AM 2.8179 -62.6029 150° Southeast  Level FlightAware Approximate
03:24AM 2.7016 -62.5354 150° Southeast  Level FlightAware Approximate
03:25AM 2.5852 -62.4679 150° Southeast  Level FlightAware Approximate
03:26AM 2.4689 -62.4005 150° Southeast  Level FlightAware Approximate
03:27AM 2.3526 -62.3330 150° Southeast  Level FlightAware Approximate
03:28AM 2.2362 -62.2656 150° Southeast  Level FlightAware Approximate
03:29AM 2.1199 -62.1982 150° Southeast  Level FlightAware Approximate
03:30AM 2.0036 -62.1307 150° Southeast  Level FlightAware Approximate
03:31AM 1.8872 -62.0633 150° Southeast  Level FlightAware Approximate
03:32AM 1.7709 -61.9959 150° Southeast  Level FlightAware Approximate
03:33AM 1.6545 -61.9285 150° Southeast  Level FlightAware Approximate
03:34AM 1.5382 -61.8612 150° Southeast  Level FlightAware Approximate
03:35AM 1.4218 -61.7938 150° Southeast  Level FlightAware Approximate
03:36AM 1.3054 -61.7264 150° Southeast  Level FlightAware Approximate
03:37AM 1.1891 -61.6590 150° Southeast  Level FlightAware Approximate
03:38AM 1.0727 -61.5917 150° Southeast  Level FlightAware Approximate
03:39AM 0.9564 -61.5243 150° Southeast  Level FlightAware Approximate
03:40AM 0.8400 -61.4570 150° Southeast  Level FlightAware Approximate
03:41AM 0.7236 -61.3896 150° Southeast  Level FlightAware Approximate
03:42AM 0.6073 -61.3223 150° Southeast  Level FlightAware Approximate
03:43AM 0.4909 -61.2550 150° Southeast  Level FlightAware Approximate
03:44AM 0.3745 -61.1876 150° Southeast  Level FlightAware Approximate
03:45AM 0.2582 -61.1203 150° Southeast  Level FlightAware Approximate
03:46AM 0.1418 -61.0530 150° Southeast  Level FlightAware Approximate
03:47AM 0.0254 -60.9856 150° Southeast  Level FlightAware Approximate
03:48AM -0.0909 -60.9183 150° Southeast  Level FlightAware Approximate
03:49AM -0.2073 -60.8510 150° Southeast  Level FlightAware Approximate
03:50AM -0.3237 -60.7836 150° Southeast  Level FlightAware Approximate
03:51AM -0.4401 -60.7163 150° Southeast  Level FlightAware Approximate
03:52AM -0.5564 -60.6490 150° Southeast  Level FlightAware Approximate
03:53AM -0.6728 -60.5816 150° Southeast  Level FlightAware Approximate
03:54AM -0.7891 -60.5143 150° Southeast  Level FlightAware Approximate
03:55AM -0.9055 -60.4469 150° Southeast  Level FlightAware Approximate
03:56AM -1.0219 -60.3796 150° Southeast  Level FlightAware Approximate
03:57AM -1.1382 -60.3122 150° Southeast  Level FlightAware Approximate
03:58AM -1.2546 -60.2449 150° Southeast  Level FlightAware Approximate
03:59AM -1.3709 -60.1775 150° Southeast  Level FlightAware Approximate
04:00AM -1.4873 -60.1101 150° Southeast  Level FlightAware Approximate
04:01AM -1.6037 -60.0428 150° Southeast  Level FlightAware Approximate
04:02AM -1.7200 -59.9754 150° Southeast  Level FlightAware Approximate
04:03AM -1.8364 -59.9080 150° Southeast  Level FlightAware Approximate
04:04AM -1.9527 -59.8405 150° Southeast  Level FlightAware Approximate
04:05AM -2.0691 -59.7731 150° Southeast  Level FlightAware Approximate
04:06AM -2.1854 -59.7057 150° Southeast  Level FlightAware Approximate
04:07AM -2.3017 -59.6383 150° Southeast  Level FlightAware Approximate
04:08AM -2.4181 -59.5708 150° Southeast  Level FlightAware Approximate
04:09AM -2.5344 -59.5033 150° Southeast  Level FlightAware Approximate
04:10AM -2.6507 -59.4359 150° Southeast  Level FlightAware Approximate
04:11AM -2.7670 -59.3684 150° Southeast  Level FlightAware Approximate
04:12AM -2.8834 -59.3009 150° Southeast  Level FlightAware Approximate
04:13AM -2.9997 -59.2334 150° Southeast  Level FlightAware Approximate
04:14AM -3.1160 -59.1659 150° Southeast  Level FlightAware Approximate
04:15AM -3.2323 -59.0983 150° Southeast  Level FlightAware Approximate
04:16AM -3.3486 -59.0308 150° Southeast  Level FlightAware Approximate
04:17AM -3.4649 -58.9632 150° Southeast  Level FlightAware Approximate
04:18AM -3.5812 -58.8956 150° Southeast  Level FlightAware Approximate
04:19AM -3.6975 -58.8280 150° Southeast  Level FlightAware Approximate
04:20AM -3.8138 -58.7604 150° Southeast  Level FlightAware Approximate
04:21AM -3.9300 -58.6928 150° Southeast  Level FlightAware Approximate
04:22AM -4.0463 -58.6251 150° Southeast  Level FlightAware Approximate
04:23AM -4.1626 -58.5574 150° Southeast  Level FlightAware Approximate
04:24AM -4.2788 -58.4897 150° Southeast  Level FlightAware Approximate
04:25AM -4.3951 -58.4220 150° Southeast  Level FlightAware Approximate
04:26AM -4.5114 -58.3543 150° Southeast  Level FlightAware Approximate
04:27AM -4.6276 -58.2865 150° Southeast  Level FlightAware Approximate
04:28AM -4.7438 -58.2187 150° Southeast  Level FlightAware Approximate
04:29AM -4.8601 -58.1509 150° Southeast  Level FlightAware Approximate
04:30AM -4.9759 -58.0833 150° Southeast  Level FlightAware Approximate
04:31AM -5.0917 -58.0157 150° Southeast  Level FlightAware Approximate
04:32AM -5.2075 -57.9481 150° Southeast  Level FlightAware Approximate
04:33AM -5.3233 -57.8804 150° Southeast  Level FlightAware Approximate
04:34AM -5.4391 -57.8127 150° Southeast  Level FlightAware Approximate
04:35AM -5.5548 -57.7450 150° Southeast  Level FlightAware Approximate
04:36AM -5.6706 -57.6772 150° Southeast  Level FlightAware Approximate
04:37AM -5.7864 -57.6095 150° Southeast  Level FlightAware Approximate
04:38AM -5.9021 -57.5417 150° Southeast  Level FlightAware Approximate
04:39AM -6.0179 -57.4739 150° Southeast  Level FlightAware Approximate
04:40AM -6.1336 -57.4060 150° Southeast  Level FlightAware Approximate
04:41AM -6.2493 -57.3381 150° Southeast  Level FlightAware Approximate
04:42AM -6.3650 -57.2702 150° Southeast  Level FlightAware Approximate
04:43AM -6.4808 -57.2023 150° Southeast  Level FlightAware Approximate
04:44AM -6.5965 -57.1343 150° Southeast  Level FlightAware Approximate
04:45AM -6.7122 -57.0663 150° Southeast  Level FlightAware Approximate
04:46AM -6.8278 -56.9982 150° Southeast  Level FlightAware Approximate
04:47AM -6.9435 -56.9302 150° Southeast  Level FlightAware Approximate
04:48AM -7.0592 -56.8621 150° Southeast  Level FlightAware Approximate
04:49AM -7.1748 -56.7939 150° Southeast  Level FlightAware Approximate
04:50AM -7.2905 -56.7257 150° Southeast  Level FlightAware Approximate
04:51AM -7.4061 -56.6575 150° Southeast  Level FlightAware Approximate
04:52AM -7.5217 -56.5893 150° Southeast  Level FlightAware Approximate
04:53AM -7.6373 -56.5210 150° Southeast  Level FlightAware Approximate
04:54AM -7.7529 -56.4527 150° Southeast  Level FlightAware Approximate
04:55AM -7.8685 -56.3843 150° Southeast  Level FlightAware Approximate
04:56AM -7.9841 -56.3159 150° Southeast  Level FlightAware Approximate
04:57AM -8.0997 -56.2475 150° Southeast  Level FlightAware Approximate
04:58AM -8.2152 -56.1790 150° Southeast  Level FlightAware Approximate
04:59AM -8.3308 -56.1105 150° Southeast  Level FlightAware Approximate
05:00AM -8.4463 -56.0420 150° Southeast  Level FlightAware Approximate
05:01AM -8.5618 -55.9734 150° Southeast  Level FlightAware Approximate
05:02AM -8.6773 -55.9047 150° Southeast  Level FlightAware Approximate
05:03AM -8.7928 -55.8360 150° Southeast  Level FlightAware Approximate
05:04AM -8.9083 -55.7673 150° Southeast  Level FlightAware Approximate
05:05AM -9.0238 -55.6986 150° Southeast  Level FlightAware Approximate
05:06AM -9.1392 -55.6298 150° Southeast  Level FlightAware Approximate
05:07AM -9.2547 -55.5609 150° Southeast  Level FlightAware Approximate
05:08AM -9.3701 -55.4920 150° Southeast  Level FlightAware Approximate
05:09AM -9.4855 -55.4231 149° Southeast  Level FlightAware Approximate
05:10AM -9.6001 -55.3546 149° Southeast  Level FlightAware Approximate
05:11AM -9.7147 -55.2860 149° Southeast  Level FlightAware Approximate
05:12AM -9.8293 -55.2174 149° Southeast  Level FlightAware Approximate
05:13AM -9.9439 -55.1488 149° Southeast  Level FlightAware Approximate
05:14AM -10.0584 -55.0801 149° Southeast  Level FlightAware Approximate
05:15AM -10.1729 -55.0113 149° Southeast  Level FlightAware Approximate
05:16AM -10.2874 -54.9425 149° Southeast  Level FlightAware Approximate
05:17AM -10.4017 -54.8738 149° Southeast  Level FlightAware Approximate
05:18AM -10.5160 -54.8050 149° Southeast  Level FlightAware Approximate
05:19AM -10.6303 -54.7362 149° Southeast  Level FlightAware Approximate
05:20AM -10.7446 -54.6673 149° Southeast  Level FlightAware Approximate
05:21AM -10.8588 -54.5984 149° Southeast  Level FlightAware Approximate
05:22AM -10.9730 -54.5294 149° Southeast  Level FlightAware Approximate
05:23AM -11.0872 -54.4604 149° Southeast  Level FlightAware Approximate
05:24AM -11.2014 -54.3913 149° Southeast  Level FlightAware Approximate
05:25AM -11.3156 -54.3221 149° Southeast  Level FlightAware Approximate
05:26AM -11.4298 -54.2529 149° Southeast  Level FlightAware Approximate
05:27AM -11.5439 -54.1837 149° Southeast  Level FlightAware Approximate
05:28AM -11.6581 -54.1144 149° Southeast  Level FlightAware Approximate
05:29AM -11.7722 -54.0450 149° Southeast  Level FlightAware Approximate
05:30AM -11.8863 -53.9756 149° Southeast  Level FlightAware Approximate
05:31AM -12.0003 -53.9061 149° Southeast  Level FlightAware Approximate
05:32AM -12.1144 -53.8366 149° Southeast  Level FlightAware Approximate
05:33AM -12.2285 -53.7670 149° Southeast  Level FlightAware Approximate
05:34AM -12.3425 -53.6973 149° Southeast  Level FlightAware Approximate
05:35AM -12.4565 -53.6276 149° Southeast  Level FlightAware Approximate
05:36AM -12.5705 -53.5578 149° Southeast  Level FlightAware Approximate
05:37AM -12.6845 -53.4879 149° Southeast  Level FlightAware Approximate
05:38AM -12.7984 -53.4180 149° Southeast  Level FlightAware Approximate
05:39AM -12.9120 -53.3483 149° Southeast  Level FlightAware Approximate
05:40AM -13.0255 -53.2785 149° Southeast  Level FlightAware Approximate
05:41AM -13.1390 -53.2087 149° Southeast  Level FlightAware Approximate
05:42AM -13.2525 -53.1387 149° Southeast  Level FlightAware Approximate
05:43AM -13.3659 -53.0687 149° Southeast  Level FlightAware Approximate
05:44AM -13.4794 -52.9987 149° Southeast  Level FlightAware Approximate
05:45AM -13.5928 -52.9286 149° Southeast  Level FlightAware Approximate
05:46AM -13.7062 -52.8584 149° Southeast  Level FlightAware Approximate
05:47AM -13.8196 -52.7882 149° Southeast  Level FlightAware Approximate
05:48AM -13.9328 -52.7179 149° Southeast  Level FlightAware Approximate
05:49AM -14.0459 -52.6477 149° Southeast  Level FlightAware Approximate
05:50AM -14.1591 -52.5773 149° Southeast  Level FlightAware Approximate
05:51AM -14.2722 -52.5069 149° Southeast  Level FlightAware Approximate
05:52AM -14.3853 -52.4365 149° Southeast  Level FlightAware Approximate
05:53AM -14.4983 -52.3659 149° Southeast  Level FlightAware Approximate
05:54AM -14.6114 -52.2953 149° Southeast  Level FlightAware Approximate
05:55AM -14.7244 -52.2246 149° Southeast  Level FlightAware Approximate
05:56AM -14.8374 -52.1538 149° Southeast  Level FlightAware Approximate
05:57AM -14.9504 -52.0830 149° Southeast  Level FlightAware Approximate
05:58AM -15.0633 -52.0121 149° Southeast  Level FlightAware Approximate
05:59AM -15.1763 -51.9411 149° Southeast  Level FlightAware Approximate
06:00AM -15.2892 -51.8700 149° Southeast  Level FlightAware Approximate
06:01AM -15.4021 -51.7989 149° Southeast  Level FlightAware Approximate
06:02AM -15.5150 -51.7276 149° Southeast  Level FlightAware Approximate
06:03AM -15.6278 -51.6563 149° Southeast  Level FlightAware Approximate
06:04AM -15.7406 -51.5850 149° Southeast  Level FlightAware Approximate
06:05AM -15.8534 -51.5135 149° Southeast  Level FlightAware Approximate
06:06AM -15.9662 -51.4420 149° Southeast  Level FlightAware Approximate
06:07AM -16.0790 -51.3703 149° Southeast  Level FlightAware Approximate
06:08AM -16.1917 -51.2986 149° Southeast  Level FlightAware Approximate
06:09AM -16.3044 -51.2269 149° Southeast  Level FlightAware Approximate
06:10AM -16.4171 -51.1550 149° Southeast  Level FlightAware Approximate
06:11AM -16.5297 -51.0830 149° Southeast  Level FlightAware Approximate
06:12AM -16.6424 -51.0110 149° Southeast  Level FlightAware Approximate
06:13AM -16.7550 -50.9389 148° Southeast  Level FlightAware Approximate
06:14AM -16.8676 -50.8667 148° Southeast  Level FlightAware Approximate
06:15AM -16.9801 -50.7944 148° Southeast  Level FlightAware Approximate
06:16AM -17.0926 -50.7220 148° Southeast  Level FlightAware Approximate
06:17AM -17.2052 -50.6496 148° Southeast  Level FlightAware Approximate
06:18AM -17.3176 -50.5770 148° Southeast  Level FlightAware Approximate
06:19AM -17.4301 -50.5044 148° Southeast  Level FlightAware Approximate
06:20AM -17.5425 -50.4317 148° Southeast  Level FlightAware Approximate
06:21AM -17.6549 -50.3588 148° Southeast  Level FlightAware Approximate
06:22AM -17.7673 -50.2859 148° Southeast  Level FlightAware Approximate
06:23AM -17.8797 -50.2129 148° Southeast  Level FlightAware Approximate
06:24AM -17.9920 -50.1398 148° Southeast  Level FlightAware Approximate
06:25AM -18.1043 -50.0667 148° Southeast  Level FlightAware Approximate
06:26AM -18.2165 -49.9934 148° Southeast  Level FlightAware Approximate
06:27AM -18.3288 -49.9200 148° Southeast  Level FlightAware Approximate
06:28AM -18.4410 -49.8465 148° Southeast  Level FlightAware Approximate
06:29AM -18.5532 -49.7730 148° Southeast  Level FlightAware Approximate
06:30AM -18.6653 -49.6993 148° Southeast  Level FlightAware Approximate
06:31AM -18.7774 -49.6255 148° Southeast  Level FlightAware Approximate
06:32AM -18.8895 -49.5517 148° Southeast  Level FlightAware Approximate
06:33AM -19.0016 -49.4777 148° Southeast  Level FlightAware Approximate
06:34AM -19.1136 -49.4037 148° Southeast  Level FlightAware Approximate
06:35AM -19.2257 -49.3295 148° Southeast  Level FlightAware Approximate
06:36AM -19.3376 -49.2552 148° Southeast  Level FlightAware Approximate
06:37AM -19.4496 -49.1809 148° Southeast  Level FlightAware Approximate
06:38AM -19.5615 -49.1064 148° Southeast  Level FlightAware Approximate
06:39AM -19.6734 -49.0318 148° Southeast  Level FlightAware Approximate
06:40AM -19.7852 -48.9572 148° Southeast  Level FlightAware Approximate
06:41AM -19.8971 -48.8824 148° Southeast  Level FlightAware Approximate
06:42AM -20.0089 -48.8075 148° Southeast  Level FlightAware Approximate
06:43AM -20.1206 -48.7325 148° Southeast  Level FlightAware Approximate
06:44AM -20.2323 -48.6575 148° Southeast  Level FlightAware Approximate
06:45AM -20.3440 -48.5822 148° Southeast  Level FlightAware Approximate
06:46AM -20.4557 -48.5069 148° Southeast  Level FlightAware Approximate
06:47AM -20.5674 -48.4315 148° Southeast  Level FlightAware Approximate
06:48AM -20.6789 -48.3560 148° Southeast  Level FlightAware Approximate
06:49AM -20.7905 -48.2803 148° Southeast  Level FlightAware Approximate
06:50AM -20.9021 -48.2046 148° Southeast  Level FlightAware Approximate
06:51AM -21.0135 -48.1287 148° Southeast  Level FlightAware Approximate
06:52AM -21.1250 -48.0527 148° Southeast  Level FlightAware Approximate
06:53AM -21.2365 -47.9767 148° Southeast  Level FlightAware Approximate
06:54AM -21.3479 -47.9004 147° Southeast  Level FlightAware Approximate
06:55AM -21.4592 -47.8241 147° Southeast  Level FlightAware Approximate
06:56AM -21.5705 -47.7477 147° Southeast  Level FlightAware Approximate
06:57AM -21.6818 -47.6711 147° Southeast  Level FlightAware Approximate
06:58AM -21.7931 -47.5944 147° Southeast  Level FlightAware Approximate
06:59AM -21.9059 -47.5205 149° Southeast  Level FlightAware Approximate
07:00AM -22.0196 -47.4479 146° Southeast  Level FlightAware Approximate
07:01AM -22.1289 -47.3678 146° Southeast  Level FlightAware Approximate
07:02AM -22.2381 -47.2876 146° Southeast  Level FlightAware Approximate
07:03AM -22.3485 -47.2101 147° Southeast  Level FlightAware Approximate
07:04AM -22.4594 -47.1333 147° Southeast  Level FlightAware Approximate
07:05AM -22.5704 -47.0569 148° Southeast  Level FlightAware Approximate
07:06AM -22.6822 -46.9800 148° Southeast  Level FlightAware Approximate
07:07AM -22.7943 -46.9038 148° Southeast  Level FlightAware Approximate
07:08AM -22.9069 -46.8283 146° Southeast  Level FlightAware Approximate
07:08AM -21.6519 -46.4187 146° Southeast 411 473 33,000  Level FlightAware ADS-B
07:09AM -21.7734 -46.3989 171° South 411 473 33,000  Level FlightAware ADS-B
07:10AM -21.8926 -46.3792 171° South 414 476 33,000  Level FlightAware ADS-B
07:11AM -21.9952 -46.3624 171° South 416 479 33,000 -240 Level FlightAware ADS-B
07:12AM -22.1196 -46.3397 170° South 400 460 32,600 -1,200 Descending FlightAware ADS-B
07:13AM -22.2179 -46.3222 171° South 377 434 30,700 -1,920 Descending FlightAware ADS-B
07:14AM -22.3203 -46.3046 171° South 366 421 28,900 -1,980 Descending FlightAware ADS-B
07:15AM -22.3972 -46.2917 171° South 364 419 27,000 -1,680 Descending FlightAware ADS-B
07:16AM -22.5254 -46.2873 178° South 352 405 25,500 -1,380 Descending FlightAware ADS-B
07:17AM -22.6161 -46.2857 179° South 339 390 24,100 -1,380 Descending FlightAware ADS-B
07:18AM -22.7079 -46.2841 179° South 346 398 22,800 -1,320 Descending FlightAware ADS-B
07:19AM -22.8132 -46.2825 179° South 341 392 21,500 -1,440 Descending FlightAware ADS-B
07:20AM -22.8996 -46.2810 179° South 356 410 20,000 -2,100 Descending FlightAware ADS-B
07:21AM -23.0020 -46.2794 179° South 334 384 17,400 -2,280 Descending FlightAware ADS-B
07:22AM -23.0920 -46.2781 179° South 319 367 15,400 -1,920 Descending FlightAware ADS-B
07:23AM -23.1865 -46.2766 179° South 317 365 13,600 -1,320 Descending FlightAware ADS-B
07:24AM -23.2641 -46.2859 186° South 307 353 12,900 -1,080 Descending FlightAware ADS-B
07:25AM -23.3027 -46.3710 244° Southwest 301 346 11,500 -1,260 Descending FlightAware ADS-B
07:26AM -23.3263 -46.4527 253° West 296 341 10,400 -1,140 Descending FlightAware ADS-B
07:27AM -23.3490 -46.5287 252° West 285 328 9,300 -1,260 Descending FlightAware ADS-B
07:28AM -23.3766 -46.6214 252° West 284 327 7,900 -1,380 Descending FlightAware ADS-B
07:29AM -23.4185 -46.6794 232° Southwest 240 276 6,600 -1,200 Descending FlightAware ADS-B
07:30AM -23.4726 -46.6653 167° South 206 237 5,600 -1,080 Descending FlightAware ADS-B
07:32AM -23.4595 -46.5634 82° East 172 198 3,500 -1,020 Descending FlightAware ADS-B
07:33AM -23.4443 -46.5073 74° East 167 192 2,700 -900 Descending FlightAware ADS-B